| time (UTC) | temp F | wind direction | speed MPH | gust MPH | rain 1hr in | rain 24hr in | rain mn in | humidity % | barometer mb |
| 20260507233038 | 83 | 309 | 6.0 | 18.0 | 0.00 | 0.00 | 0.00 | 12 | 1012.1 |
| 20260507231550 | 85 | 305 | 5.0 | 10.0 | 0.00 | 0.00 | 0.00 | 12 | 1012.3 |
| 20260507230048 | 83 | 338 | 6.0 | 11.0 | 0.00 | 0.00 | 0.00 | 12 | 1012.4 |
| 20260507224545 | 83 | 282 | 5.0 | 10.0 | 0.00 | 0.00 | 0.00 | 12 | 1012.5 |
| 20260507223043 | 83 | 355 | 5.0 | 13.0 | 0.00 | 0.00 | 0.00 | 13 | 1012.3 |
| 20260507221542 | 83 | 270 | 5.0 | 13.0 | 0.00 | 0.00 | 0.00 | 13 | 1012.6 |
| 20260507220038 | 84 | 4 | 6.0 | 10.0 | 0.00 | 0.00 | 0.00 | 12 | 1012.9 |
| 20260507214544 | 82 | 355 | 6.0 | 9.0 | 0.00 | 0.00 | 0.00 | 12 | 1012.9 |
| 20260507213045 | 83 | 51 | 8.0 | 32.0 | 0.00 | 0.00 | 0.00 | 12 | 1013.2 |
| 20260507211539 | 84 | 309 | 2.0 | 10.0 | 0.00 | 0.00 | 0.00 | 11 | 1013.1 |
| 20260507210045 | 87 | 163 | 3.0 | 9.0 | 0.00 | 0.00 | 0.00 | 10 | 1013.4 |
| 20260507204545 | 87 | 140 | 2.0 | 13.0 | 0.00 | 0.00 | 0.00 | 11 | 1013.5 |
| 20260507203043 | 85 | 176 | 2.0 | 6.0 | 0.00 | 0.00 | 0.00 | 12 | 1013.8 |
| 20260507201539 | 85 | 128 | 1.0 | 7.0 | 0.00 | 0.00 | 0.00 | 12 | 1013.9 |
| 20260507200038 | 86 | 162 | 5.0 | 12.0 | 0.00 | 0.00 | 0.00 | 11 | 1014.2 |
| 20260507194544 | 82 | 13 | 4.0 | 12.0 | 0.00 | 0.00 | 0.00 | 12 | 1014.3 |
| 20260507193050 | 86 | 140 | 1.0 | 15.0 | 0.00 | 0.00 | 0.00 | 12 | 1014.4 |
| 20260507191542 | 86 | 108 | 5.0 | 13.0 | 0.00 | 0.00 | 0.00 | 11 | 1014.6 |
| 20260507190041 | 84 | 158 | 4.0 | 13.0 | 0.00 | 0.00 | 0.00 | 13 | 1015.0 |
| 20260507184537 | 82 | 78 | 6.0 | 13.0 | 0.00 | 0.00 | 0.00 | 15 | 1014.9 |
| 20260507183045 | 80 | 259 | 3.0 | 14.0 | 0.00 | 0.00 | 0.00 | 15 | 1015.1 |
| 20260507181543 | 80 | 116 | 8.0 | 17.0 | 0.00 | 0.00 | 0.00 | 15 | 1015.1 |
| 20260507180044 | 80 | 328 | 1.0 | 7.0 | 0.00 | 0.00 | 0.00 | 16 | 1015.3 |
| 20260507174539 | 79 | 97 | 3.0 | 12.0 | 0.00 | 0.00 | 0.00 | 15 | 1015.4 |
| 20260507173044 | 80 | 99 | 2.0 | 8.0 | 0.00 | 0.00 | 0.00 | 16 | 1015.7 |
| 20260507171550 | 77 | 340 | 2.0 | 7.0 | 0.00 | 0.00 | 0.00 | 18 | 1015.9 |
| 20260507170050 | 76 | 29 | 0.0 | 4.0 | 0.00 | 0.00 | 0.00 | 18 | 1016.1 |
| 20260507164539 | 76 | 0 | 0.0 | 5.0 | 0.00 | 0.00 | 0.00 | 18 | 1016.2 |
| 20260507163041 | 75 | 14 | 1.0 | 6.0 | 0.00 | 0.00 | 0.00 | 18 | 1016.4 |
| 20260507161539 | 74 | 0 | 0.0 | 2.0 | 0.00 | 0.00 | 0.00 | 20 | 1016.4 |
| 20260507160041 | 74 | 146 | 1.0 | 2.0 | 0.00 | 0.00 | 0.00 | 21 | 1016.6 |
| 20260507154545 | 73 | 122 | 1.0 | 7.0 | 0.00 | 0.00 | 0.00 | 22 | 1016.6 |
| 20260507153041 | 71 | 117 | 3.0 | 8.0 | 0.00 | 0.00 | 0.00 | 24 | 1016.7 |
| 20260507151543 | 70 | 132 | 4.0 | 6.0 | 0.00 | 0.00 | 0.00 | 25 | 1016.9 |
| 20260507150039 | 69 | 127 | 2.0 | 6.0 | 0.00 | 0.00 | 0.00 | 25 | 1016.8 |
| 20260507144600 | 67 | 140 | 2.0 | 9.0 | 0.00 | 0.00 | 0.00 | 26 | 1017.0 |
| 20260507143038 | 65 | 115 | 3.0 | 9.0 | 0.00 | 0.00 | 0.00 | 28 | 1017.0 |
| 20260507141540 | 63 | 127 | 3.0 | 8.0 | 0.00 | 0.00 | 0.00 | 30 | 1017.1 |
| 20260507140041 | 61 | 110 | 4.0 | 8.0 | 0.00 | 0.00 | 0.00 | 31 | 1017.1 |
| 20260507134547 | 59 | 169 | 4.0 | 8.0 | 0.00 | 0.00 | 0.00 | 32 | 1016.9 |
| 20260507133039 | 58 | 127 | 3.0 | 8.0 | 0.00 | 0.00 | 0.00 | 33 | 1016.8 |
| 20260507131541 | 56 | 122 | 3.0 | 8.0 | 0.00 | 0.00 | 0.00 | 35 | 1016.8 |
| 20260507130038 | 55 | 115 | 3.0 | 7.0 | 0.00 | 0.00 | 0.00 | 36 | 1016.7 |
| 20260507124537 | 55 | 129 | 3.0 | 7.0 | 0.00 | 0.00 | 0.00 | 37 | 1016.6 |
| 20260507123036 | 55 | 114 | 3.0 | 7.0 | 0.00 | 0.00 | 0.00 | 36 | 1016.5 |
| 20260507121543 | 55 | 134 | 3.0 | 7.0 | 0.00 | 0.00 | 0.00 | 36 | 1016.4 |
| 20260507120042 | 55 | 130 | 3.0 | 5.0 | 0.00 | 0.00 | 0.00 | 37 | 1016.4 |
| 20260507114538 | 55 | 124 | 2.0 | 7.0 | 0.00 | 0.00 | 0.00 | 36 | 1016.4 |
| 20260507113038 | 56 | 131 | 3.0 | 5.0 | 0.00 | 0.00 | 0.00 | 37 | 1016.5 |
| 20260507111544 | 55 | 126 | 2.0 | 6.0 | 0.00 | 0.00 | 0.00 | 38 | 1016.5 |
| 20260507110044 | 55 | 99 | 2.0 | 5.0 | 0.00 | 0.00 | 0.00 | 38 | 1016.6 |
| 20260507104540 | 55 | 133 | 2.0 | 5.0 | 0.00 | 0.00 | 0.00 | 38 | 1016.5 |
| 20260507103043 | 55 | 138 | 2.0 | 4.0 | 0.00 | 0.00 | 0.00 | 38 | 1016.6 |
| 20260507101547 | 55 | 131 | 2.0 | 4.0 | 0.00 | 0.00 | 0.00 | 37 | 1016.6 |
| 20260507100042 | 56 | 131 | 3.0 | 6.0 | 0.00 | 0.00 | 0.00 | 37 | 1016.7 |
| 20260507094544 | 56 | 126 | 2.0 | 6.0 | 0.00 | 0.00 | 0.00 | 37 | 1016.6 |
| 20260507093042 | 56 | 139 | 1.0 | 3.0 | 0.00 | 0.00 | 0.00 | 37 | 1016.6 |
| 20260507091543 | 57 | 141 | 0.0 | 2.0 | 0.00 | 0.00 | 0.00 | 36 | 1016.7 |
| 20260507090041 | 57 | 131 | 0.0 | 3.0 | 0.00 | 0.00 | 0.00 | 36 | 1016.7 |
| 20260507084545 | 56 | 106 | 1.0 | 3.0 | 0.00 | 0.00 | 0.00 | 37 | 1016.9 |
| 20260507083039 | 56 | 130 | 1.0 | 4.0 | 0.00 | 0.00 | 0.00 | 37 | 1017.1 |
| 20260507081539 | 57 | 0 | 0.0 | 2.0 | 0.00 | 0.00 | 0.00 | 36 | 1017.2 |
| 20260507080045 | 58 | 137 | 2.0 | 4.0 | 0.00 | 0.00 | 0.00 | 35 | 1017.1 |
| 20260507074540 | 59 | 143 | 0.0 | 2.0 | 0.00 | 0.00 | 0.00 | 33 | 1017.1 |
| 20260507073043 | 59 | 126 | 1.0 | 2.0 | 0.00 | 0.00 | 0.00 | 33 | 1017.2 |
| 20260507071539 | 59 | 167 | 2.0 | 4.0 | 0.00 | 0.00 | 0.00 | 32 | 1017.0 |
| 20260507070038 | 60 | 172 | 1.0 | 3.0 | 0.00 | 0.00 | 0.00 | 32 | 1017.1 |
| 20260507064538 | 61 | 153 | 2.0 | 3.0 | 0.00 | 0.00 | 0.00 | 31 | 1017.1 |
| 20260507063045 | 61 | 138 | 0.0 | 2.0 | 0.00 | 0.00 | 0.00 | 31 | 1017.1 |
| 20260507061541 | 61 | 143 | 1.0 | 2.0 | 0.00 | 0.00 | 0.00 | 31 | 1017.0 |
| 20260507060052 | 61 | 138 | 0.0 | 2.0 | 0.00 | 0.00 | 0.00 | 32 | 1017.0 |
| 20260507054547 | 61 | 169 | 1.0 | 4.0 | 0.00 | 0.00 | 0.00 | 31 | 1016.9 |
| 20260507053041 | 62 | 173 | 2.0 | 5.0 | 0.00 | 0.00 | 0.00 | 31 | 1016.8 |
| 20260507051538 | 63 | 186 | 2.0 | 3.0 | 0.00 | 0.00 | 0.00 | 28 | 1016.7 |
| 20260507050043 | 65 | 245 | 2.0 | 4.0 | 0.00 | 0.00 | 0.00 | 26 | 1016.5 |
| 20260507044553 | 66 | 255 | 1.0 | 4.0 | 0.00 | 0.00 | 0.00 | 26 | 1016.5 |
| 20260507043038 | 66 | 324 | 0.0 | 2.0 | 0.00 | 0.00 | 0.00 | 25 | 1016.5 |
| 20260507041541 | 67 | 304 | 1.0 | 3.0 | 0.00 | 0.00 | 0.00 | 25 | 1016.3 |
| 20260507040041 | 68 | 351 | 0.0 | 4.0 | 0.00 | 0.00 | 0.00 | 24 | 1016.3 |
| 20260507034541 | 68 | 320 | 2.0 | 4.0 | 0.00 | 0.00 | 0.00 | 23 | 1016.2 |
| 20260507033043 | 69 | 292 | 2.0 | 5.0 | 0.00 | 0.00 | 0.00 | 23 | 1016.0 |
| 20260507031539 | 69 | 322 | 2.0 | 4.0 | 0.00 | 0.00 | 0.00 | 23 | 1015.7 |
| 20260507030038 | 70 | 332 | 2.0 | 6.0 | 0.00 | 0.00 | 0.00 | 23 | 1015.7 |
| 20260507024542 | 71 | 320 | 3.0 | 6.0 | 0.00 | 0.00 | 0.00 | 23 | 1015.5 |
| 20260507023038 | 72 | 316 | 3.0 | 7.0 | 0.00 | 0.00 | 0.00 | 23 | 1015.4 |
| 20260507021546 | 72 | 307 | 2.0 | 7.0 | 0.00 | 0.00 | 0.00 | 22 | 1015.4 |
| 20260507020047 | 73 | 343 | 4.0 | 6.0 | 0.00 | 0.00 | 0.00 | 21 | 1015.3 |
| 20260507014543 | 74 | 329 | 4.0 | 8.0 | 0.00 | 0.00 | 0.00 | 20 | 1015.3 |
| 20260507013055 | 75 | 359 | 3.0 | 8.0 | 0.00 | 0.00 | 0.00 | 19 | 1015.2 |
| 20260507011542 | 75 | 342 | 4.0 | 8.0 | 0.00 | 0.00 | 0.00 | 19 | 1015.2 |
| 20260507010043 | 75 | 357 | 5.0 | 12.0 | 0.00 | 0.00 | 0.00 | 19 | 1015.1 |
| 20260507004538 | 76 | 296 | 5.0 | 10.0 | 0.00 | 0.00 | 0.00 | 19 | 1015.1 |
| 20260507003042 | 76 | 256 | 4.0 | 9.0 | 0.00 | 0.00 | 0.00 | 18 | 1015.2 |
| 20260507001544 | 76 | 285 | 6.0 | 9.0 | 0.00 | 0.00 | 0.00 | 18 | 1015.2 |
| 20260507000048 | 76 | 44 | 5.0 | 10.0 | 0.00 | 0.00 | 0.00 | 19 | 1015.1 |
| 20260506234541 | 76 | 328 | 5.0 | 10.0 | 0.00 | 0.00 | 0.00 | 19 | 1015.1 |